Athol, Idaho
Current Conditions -  °F | °C
As of 3:55 AM on Monday 24 Nov 2014 (Local Time) from KCOE Reporting Station
Clear Clear  
Wind Chill: 23°   Ceiling: Unl
Heat Index: 30°   Visibility: 10mi
Dew Point: 27°   Wind: 8mph
Humidity: 86%   Direction: 170°S
Pressure: 30.24"   Gusts: NA
Location:  47.95°N, 116.71°W
Report Text: KCOE 241155Z AUTO 17007KT 10SM CLR M01/M03 A3024 RMK AO1 70014 10010 21020 52014
Loading
Personal Weather Stations






























Interactive Weather Map New forecast layout! Learn more

10-Day Weather Forecast

Advertisements
Track Severe Weather on mobile